Jessup, MD

5:57 PM EDT on September 03, 2015 (GMT -0400)
Heritage Woods | | Change Station
CLOSE
Current Station
Personal Weather Station
Location: Jessup, MD
Elevation: 305 ft
Nearby Weather Stations

Elev 305 ft 39.16 °N, 76.82 °W | Updated 2 minutes ago

Partly Cloudy
Partly Cloudy
90.9 °F
Feels Like 95 °F
N
3.0
Wind Variable Wind from East
Gusts 5.0 mph

Today
High -- | Low -- °F
--% Chance of Precip.
Yesterday
High -- | Low -- °F
Precip. -- in
6:37 AM 7:35 PM
Waning Gibbous, 66% visible
Pressure 29.86 in
Visibility 10.0 miles
Clouds Scattered Clouds 6500 ft
Scattered Clouds 8000 ft
Heat Index 95 °F
Dew Point 68 °F
Humidity 48%
Rainfall 0.00 in
Snow Depth Not available.
UV 1 out of 12
Pollen 10.10 out of 12
Air Quality Not available.
Flu Activity Not available.
METAR KFME 032148Z AUTO 18005KT 10SM SCT065 SCT080 28/22 A2986 RMK AO1
Pressure 29.86 in
Visibility 10.0 miles
Clouds Scattered Clouds 6500 ft
Scattered Clouds 8000 ft
Heat Index 95 °F
Dew Point 68 °F
Humidity 48%
Rainfall 0.00 in
Snow Depth Not available.
UV 1 out of 12
Pollen 10.10 out of 12
Air Quality Not available.
Flu Activity Not available.
METAR KFME 032148Z AUTO 18005KT 10SM SCT065 SCT080 28/22 A2986 RMK AO1

10-Day Weather Forecast

×

Almanac

Astronomy

Sep. 03, 2015 Rise Set
Actual Time
Civil Twilight
Nautical Twilight
Astronomical Twilight
Moon
Length of Visible Light
Length of Day
Tomorrow will be .
, % of the Moon is Illuminated

Today's Extremes

State Highs State Lows

Community

WunderPhotos

Upload Photos

1,852,045 photos uploaded!

WunderBlogs® & News

Nearby

Air Quality

  Air Quality AQ Index Pollutant
Not available.

Snow Depth

Station Depth Elevation

Earthquake Activity

City Distance Mag. Time & Date
Minimum magnitude displayed is 2.5.

Coastal Water Temperatures

Place Temperature

Stations

Nearby Weather Stations

Station Location Temp. Windchill Dew Point Humidity Wind Precip. Elev Updated Type